sensor_id;sensor_type;location;lat;lon;timestamp;P1;durP1;ratioP1;P2;durP2;ratioP2
16832;SDS011;8533;48.426;10.868;2022-12-07T00:01:39;9.20;;;5.43;;
16832;SDS011;8533;48.426;10.868;2022-12-07T00:04:09;9.93;;;5.27;;
16832;SDS011;8533;48.426;10.868;2022-12-07T00:06:40;8.77;;;5.10;;
16832;SDS011;8533;48.426;10.868;2022-12-07T00:09:16;7.53;;;5.33;;
16832;SDS011;8533;48.426;10.868;2022-12-07T00:11:42;7.17;;;4.90;;
16832;SDS011;8533;48.426;10.868;2022-12-07T00:14:16;10.33;;;5.43;;
16832;SDS011;8533;48.426;10.868;2022-12-07T00:16:40;8.77;;;5.37;;
16832;SDS011;8533;48.426;10.868;2022-12-07T00:19:09;9.33;;;5.57;;
16832;SDS011;8533;48.426;10.868;2022-12-07T00:21:39;8.83;;;5.47;;
16832;SDS011;8533;48.426;10.868;2022-12-07T00:24:06;10.03;;;5.20;;
16832;SDS011;8533;48.426;10.868;2022-12-07T00:26:35;10.93;;;5.90;;
16832;SDS011;8533;48.426;10.868;2022-12-07T00:29:06;9.03;;;5.40;;
16832;SDS011;8533;48.426;10.868;2022-12-07T00:31:36;9.53;;;6.13;;
16832;SDS011;8533;48.426;10.868;2022-12-07T00:34:04;8.20;;;4.97;;
16832;SDS011;8533;48.426;10.868;2022-12-07T00:36:32;9.20;;;4.87;;
16832;SDS011;8533;48.426;10.868;2022-12-07T00:39:00;9.27;;;5.30;;
16832;SDS011;8533;48.426;10.868;2022-12-07T00:41:28;9.77;;;5.57;;
16832;SDS011;8533;48.426;10.868;2022-12-07T00:43:56;7.20;;;4.90;;
16832;SDS011;8533;48.426;10.868;2022-12-07T00:46:24;8.70;;;5.27;;
16832;SDS011;8533;48.426;10.868;2022-12-07T00:48:52;10.80;;;6.00;;
16832;SDS011;8533;48.426;10.868;2022-12-07T00:51:22;10.27;;;5.63;;
16832;SDS011;8533;48.426;10.868;2022-12-07T00:53:50;10.00;;;6.10;;
16832;SDS011;8533;48.426;10.868;2022-12-07T00:56:24;9.00;;;5.97;;
16832;SDS011;8533;48.426;10.868;2022-12-07T00:58:50;10.07;;;6.23;;
16832;SDS011;8533;48.426;10.868;2022-12-07T01:01:23;10.50;;;6.43;;
16832;SDS011;8533;48.426;10.868;2022-12-07T01:03:52;9.20;;;5.90;;
16832;SDS011;8533;48.426;10.868;2022-12-07T01:06:20;9.60;;;5.07;;
16832;SDS011;8533;48.426;10.868;2022-12-07T01:08:49;8.50;;;5.60;;
16832;SDS011;8533;48.426;10.868;2022-12-07T01:11:18;9.03;;;5.97;;
16832;SDS011;8533;48.426;10.868;2022-12-07T01:13:49;6.50;;;5.00;;
16832;SDS011;8533;48.426;10.868;2022-12-07T01:16:18;8.93;;;5.47;;
16832;SDS011;8533;48.426;10.868;2022-12-07T01:18:48;9.10;;;5.70;;
16832;SDS011;8533;48.426;10.868;2022-12-07T01:21:20;10.33;;;5.67;;
16832;SDS011;8533;48.426;10.868;2022-12-07T01:23:50;10.53;;;5.50;;
16832;SDS011;8533;48.426;10.868;2022-12-07T01:26:19;10.30;;;5.87;;
16832;SDS011;8533;48.426;10.868;2022-12-07T01:28:48;6.27;;;4.73;;
16832;SDS011;8533;48.426;10.868;2022-12-07T01:31:17;10.47;;;5.33;;
16832;SDS011;8533;48.426;10.868;2022-12-07T01:33:47;7.03;;;5.00;;
16832;SDS011;8533;48.426;10.868;2022-12-07T01:36:23;8.17;;;4.90;;
16832;SDS011;8533;48.426;10.868;2022-12-07T01:41:22;8.00;;;5.60;;
16832;SDS011;8533;48.426;10.868;2022-12-07T01:46:44;8.83;;;5.30;;
16832;SDS011;8533;48.426;10.868;2022-12-07T01:54:24;9.27;;;4.77;;
16832;SDS011;8533;48.426;10.868;2022-12-07T01:56:52;8.73;;;5.13;;
16832;SDS011;8533;48.426;10.868;2022-12-07T01:59:23;9.30;;;5.70;;
16832;SDS011;8533;48.426;10.868;2022-12-07T02:01:52;8.27;;;5.20;;
16832;SDS011;8533;48.426;10.868;2022-12-07T02:04:21;8.03;;;5.03;;
16832;SDS011;8533;48.426;10.868;2022-12-07T02:06:49;9.23;;;5.17;;
16832;SDS011;8533;48.426;10.868;2022-12-07T02:09:17;9.27;;;5.13;;
16832;SDS011;8533;48.426;10.868;2022-12-07T02:11:45;8.70;;;5.47;;
16832;SDS011;8533;48.426;10.868;2022-12-07T02:14:12;7.80;;;4.87;;
16832;SDS011;8533;48.426;10.868;2022-12-07T02:16:55;7.53;;;4.97;;
16832;SDS011;8533;48.426;10.868;2022-12-07T02:25:12;7.40;;;5.20;;
16832;SDS011;8533;48.426;10.868;2022-12-07T02:27:45;9.45;;;5.70;;
16832;SDS011;8533;48.426;10.868;2022-12-07T02:32:51;8.90;;;4.80;;
16832;SDS011;8533;48.426;10.868;2022-12-07T02:35:24;10.90;;;5.97;;
16832;SDS011;8533;48.426;10.868;2022-12-07T02:40:36;12.50;;;5.50;;
16832;SDS011;8533;48.426;10.868;2022-12-07T02:43:15;7.63;;;5.17;;
16832;SDS011;8533;48.426;10.868;2022-12-07T02:48:18;9.37;;;5.53;;
16832;SDS011;8533;48.426;10.868;2022-12-07T02:50:50;9.87;;;6.20;;
16832;SDS011;8533;48.426;10.868;2022-12-07T02:53:33;9.93;;;5.77;;
16832;SDS011;8533;48.426;10.868;2022-12-07T03:01:34;8.80;;;5.33;;
16832;SDS011;8533;48.426;10.868;2022-12-07T03:06:44;9.97;;;6.07;;
16832;SDS011;8533;48.426;10.868;2022-12-07T03:09:15;9.70;;;5.50;;
16832;SDS011;8533;48.426;10.868;2022-12-07T03:11:48;8.73;;;5.37;;
16832;SDS011;8533;48.426;10.868;2022-12-07T03:14:21;12.60;;;6.30;;
16832;SDS011;8533;48.426;10.868;2022-12-07T03:16:55;10.93;;;6.00;;
16832;SDS011;8533;48.426;10.868;2022-12-07T03:19:21;10.63;;;6.03;;
16832;SDS011;8533;48.426;10.868;2022-12-07T03:21:55;8.80;;;5.73;;
16832;SDS011;8533;48.426;10.868;2022-12-07T03:27:07;10.67;;;6.27;;
16832;SDS011;8533;48.426;10.868;2022-12-07T03:29:54;9.43;;;5.90;;
16832;SDS011;8533;48.426;10.868;2022-12-07T03:32:41;11.03;;;6.23;;
16832;SDS011;8533;48.426;10.868;2022-12-07T03:35:19;10.30;;;6.23;;
16832;SDS011;8533;48.426;10.868;2022-12-07T03:40:26;9.33;;;5.97;;
16832;SDS011;8533;48.426;10.868;2022-12-07T03:45:40;10.13;;;6.20;;
16832;SDS011;8533;48.426;10.868;2022-12-07T03:50:48;11.23;;;6.40;;
16832;SDS011;8533;48.426;10.868;2022-12-07T03:53:22;10.70;;;6.50;;
16832;SDS011;8533;48.426;10.868;2022-12-07T03:55:47;9.93;;;5.87;;
16832;SDS011;8533;48.426;10.868;2022-12-07T03:58:19;11.20;;;6.53;;
16832;SDS011;8533;48.426;10.868;2022-12-07T04:00:47;8.97;;;5.73;;
16832;SDS011;8533;48.426;10.868;2022-12-07T04:03:16;8.70;;;5.60;;
16832;SDS011;8533;48.426;10.868;2022-12-07T04:05:43;10.00;;;5.83;;
16832;SDS011;8533;48.426;10.868;2022-12-07T04:08:11;8.83;;;5.93;;
16832;SDS011;8533;48.426;10.868;2022-12-07T04:10:39;10.10;;;5.77;;
16832;SDS011;8533;48.426;10.868;2022-12-07T04:13:06;9.80;;;5.70;;
16832;SDS011;8533;48.426;10.868;2022-12-07T04:15:34;9.33;;;5.77;;
16832;SDS011;8533;48.426;10.868;2022-12-07T04:18:01;10.53;;;5.90;;
16832;SDS011;8533;48.426;10.868;2022-12-07T04:20:28;10.87;;;6.27;;
16832;SDS011;8533;48.426;10.868;2022-12-07T04:22:56;10.97;;;5.97;;
16832;SDS011;8533;48.426;10.868;2022-12-07T04:25:23;10.60;;;5.47;;
16832;SDS011;8533;48.426;10.868;2022-12-07T04:27:51;9.07;;;5.60;;
16832;SDS011;8533;48.426;10.868;2022-12-07T04:30:19;9.30;;;5.97;;
16832;SDS011;8533;48.426;10.868;2022-12-07T04:32:46;11.37;;;6.20;;
16832;SDS011;8533;48.426;10.868;2022-12-07T04:35:14;8.67;;;5.57;;
16832;SDS011;8533;48.426;10.868;2022-12-07T04:37:41;10.17;;;5.80;;
16832;SDS011;8533;48.426;10.868;2022-12-07T04:40:09;9.23;;;5.70;;
16832;SDS011;8533;48.426;10.868;2022-12-07T04:42:38;10.87;;;6.70;;
16832;SDS011;8533;48.426;10.868;2022-12-07T04:45:05;9.80;;;5.90;;
16832;SDS011;8533;48.426;10.868;2022-12-07T04:47:33;10.87;;;5.97;;
16832;SDS011;8533;48.426;10.868;2022-12-07T04:50:01;10.00;;;6.03;;
16832;SDS011;8533;48.426;10.868;2022-12-07T04:52:29;10.47;;;6.07;;
16832;SDS011;8533;48.426;10.868;2022-12-07T04:54:56;10.83;;;6.30;;
16832;SDS011;8533;48.426;10.868;2022-12-07T04:57:24;10.73;;;6.50;;
16832;SDS011;8533;48.426;10.868;2022-12-07T04:59:51;12.80;;;7.03;;
16832;SDS011;8533;48.426;10.868;2022-12-07T05:02:18;11.13;;;6.67;;
16832;SDS011;8533;48.426;10.868;2022-12-07T05:04:46;12.37;;;6.47;;
16832;SDS011;8533;48.426;10.868;2022-12-07T05:07:13;10.30;;;6.20;;
16832;SDS011;8533;48.426;10.868;2022-12-07T05:09:41;10.70;;;6.03;;
16832;SDS011;8533;48.426;10.868;2022-12-07T05:12:08;11.50;;;6.87;;
16832;SDS011;8533;48.426;10.868;2022-12-07T05:14:35;12.00;;;6.83;;
16832;SDS011;8533;48.426;10.868;2022-12-07T05:17:03;11.07;;;6.70;;
16832;SDS011;8533;48.426;10.868;2022-12-07T05:19:30;9.40;;;5.87;;
16832;SDS011;8533;48.426;10.868;2022-12-07T05:21:58;11.60;;;6.90;;
16832;SDS011;8533;48.426;10.868;2022-12-07T05:24:25;9.70;;;6.20;;
16832;SDS011;8533;48.426;10.868;2022-12-07T05:26:52;13.27;;;7.03;;
16832;SDS011;8533;48.426;10.868;2022-12-07T05:29:20;11.63;;;6.63;;
16832;SDS011;8533;48.426;10.868;2022-12-07T05:31:47;11.73;;;6.70;;
16832;SDS011;8533;48.426;10.868;2022-12-07T05:34:15;11.10;;;6.33;;
16832;SDS011;8533;48.426;10.868;2022-12-07T05:36:42;13.63;;;7.47;;
16832;SDS011;8533;48.426;10.868;2022-12-07T05:39:10;11.80;;;6.77;;
16832;SDS011;8533;48.426;10.868;2022-12-07T05:41:39;12.30;;;6.33;;
16832;SDS011;8533;48.426;10.868;2022-12-07T05:44:25;11.60;;;6.25;;
16832;SDS011;8533;48.426;10.868;2022-12-07T05:46:52;10.93;;;6.30;;
16832;SDS011;8533;48.426;10.868;2022-12-07T05:49:20;12.63;;;6.70;;
16832;SDS011;8533;48.426;10.868;2022-12-07T05:51:47;10.07;;;6.73;;
16832;SDS011;8533;48.426;10.868;2022-12-07T05:54:14;11.43;;;6.53;;
16832;SDS011;8533;48.426;10.868;2022-12-07T05:56:42;12.93;;;7.13;;
16832;SDS011;8533;48.426;10.868;2022-12-07T05:59:09;11.57;;;6.47;;
16832;SDS011;8533;48.426;10.868;2022-12-07T06:04:17;13.07;;;7.90;;
16832;SDS011;8533;48.426;10.868;2022-12-07T06:06:45;14.40;;;8.00;;
16832;SDS011;8533;48.426;10.868;2022-12-07T06:09:13;12.40;;;7.10;;
16832;SDS011;8533;48.426;10.868;2022-12-07T06:11:41;15.37;;;7.97;;
16832;SDS011;8533;48.426;10.868;2022-12-07T06:14:26;13.10;;;7.00;;
16832;SDS011;8533;48.426;10.868;2022-12-07T06:16:53;19.53;;;8.10;;
16832;SDS011;8533;48.426;10.868;2022-12-07T06:19:21;15.33;;;7.77;;
16832;SDS011;8533;48.426;10.868;2022-12-07T06:21:48;13.20;;;7.20;;
16832;SDS011;8533;48.426;10.868;2022-12-07T06:24:16;15.67;;;7.43;;
16832;SDS011;8533;48.426;10.868;2022-12-07T06:26:44;15.17;;;8.23;;
16832;SDS011;8533;48.426;10.868;2022-12-07T06:29:12;19.70;;;8.77;;
16832;SDS011;8533;48.426;10.868;2022-12-07T06:31:40;16.50;;;7.47;;
16832;SDS011;8533;48.426;10.868;2022-12-07T06:34:11;15.60;;;7.83;;
16832;SDS011;8533;48.426;10.868;2022-12-07T06:36:40;11.73;;;6.73;;
16832;SDS011;8533;48.426;10.868;2022-12-07T06:39:08;14.83;;;6.83;;
16832;SDS011;8533;48.426;10.868;2022-12-07T06:41:36;14.53;;;7.03;;
16832;SDS011;8533;48.426;10.868;2022-12-07T06:44:05;16.10;;;8.17;;
16832;SDS011;8533;48.426;10.868;2022-12-07T06:46:33;15.07;;;7.27;;
16832;SDS011;8533;48.426;10.868;2022-12-07T06:49:04;13.40;;;7.37;;
16832;SDS011;8533;48.426;10.868;2022-12-07T06:51:32;17.60;;;7.37;;
16832;SDS011;8533;48.426;10.868;2022-12-07T06:54:02;15.10;;;7.70;;
16832;SDS011;8533;48.426;10.868;2022-12-07T06:56:30;16.17;;;8.07;;
16832;SDS011;8533;48.426;10.868;2022-12-07T06:58:57;17.40;;;8.17;;
16832;SDS011;8533;48.426;10.868;2022-12-07T07:01:25;16.87;;;8.43;;
16832;SDS011;8533;48.426;10.868;2022-12-07T07:03:52;17.90;;;8.27;;
16832;SDS011;8533;48.426;10.868;2022-12-07T07:06:19;21.53;;;9.17;;
16832;SDS011;8533;48.426;10.868;2022-12-07T07:08:47;15.97;;;8.67;;
16832;SDS011;8533;48.426;10.868;2022-12-07T07:11:14;20.83;;;7.73;;
16832;SDS011;8533;48.426;10.868;2022-12-07T07:13:42;15.43;;;7.93;;
16832;SDS011;8533;48.426;10.868;2022-12-07T07:16:10;15.67;;;8.43;;
16832;SDS011;8533;48.426;10.868;2022-12-07T07:18:38;17.10;;;8.37;;
16832;SDS011;8533;48.426;10.868;2022-12-07T07:21:05;17.70;;;8.40;;
16832;SDS011;8533;48.426;10.868;2022-12-07T07:23:33;14.87;;;7.80;;
16832;SDS011;8533;48.426;10.868;2022-12-07T07:26:00;16.40;;;8.63;;
16832;SDS011;8533;48.426;10.868;2022-12-07T07:28:28;17.97;;;7.97;;
16832;SDS011;8533;48.426;10.868;2022-12-07T07:30:55;17.00;;;8.53;;
16832;SDS011;8533;48.426;10.868;2022-12-07T07:33:23;14.70;;;8.43;;
16832;SDS011;8533;48.426;10.868;2022-12-07T07:35:50;21.07;;;10.00;;
16832;SDS011;8533;48.426;10.868;2022-12-07T07:38:18;18.07;;;9.13;;
16832;SDS011;8533;48.426;10.868;2022-12-07T07:40:46;18.17;;;8.97;;
16832;SDS011;8533;48.426;10.868;2022-12-07T07:43:13;18.07;;;7.97;;
16832;SDS011;8533;48.426;10.868;2022-12-07T07:45:41;16.43;;;8.67;;
16832;SDS011;8533;48.426;10.868;2022-12-07T07:48:08;20.60;;;8.90;;
16832;SDS011;8533;48.426;10.868;2022-12-07T07:50:35;15.80;;;8.40;;
16832;SDS011;8533;48.426;10.868;2022-12-07T07:53:03;16.47;;;9.00;;
16832;SDS011;8533;48.426;10.868;2022-12-07T07:55:30;18.53;;;9.00;;
16832;SDS011;8533;48.426;10.868;2022-12-07T07:57:58;18.50;;;8.80;;
16832;SDS011;8533;48.426;10.868;2022-12-07T08:00:25;17.03;;;8.63;;
16832;SDS011;8533;48.426;10.868;2022-12-07T08:02:53;18.53;;;9.67;;
16832;SDS011;8533;48.426;10.868;2022-12-07T08:05:20;18.67;;;9.27;;
16832;SDS011;8533;48.426;10.868;2022-12-07T08:07:48;19.67;;;9.17;;
16832;SDS011;8533;48.426;10.868;2022-12-07T08:10:15;15.90;;;8.97;;
16832;SDS011;8533;48.426;10.868;2022-12-07T08:12:43;16.80;;;9.10;;
16832;SDS011;8533;48.426;10.868;2022-12-07T08:15:29;16.95;;;8.80;;
16832;SDS011;8533;48.426;10.868;2022-12-07T08:17:57;17.63;;;9.33;;
16832;SDS011;8533;48.426;10.868;2022-12-07T08:20:25;17.60;;;9.27;;
16832;SDS011;8533;48.426;10.868;2022-12-07T08:22:52;19.13;;;8.80;;
16832;SDS011;8533;48.426;10.868;2022-12-07T08:25:20;21.00;;;9.90;;
16832;SDS011;8533;48.426;10.868;2022-12-07T08:27:50;17.03;;;9.07;;
16832;SDS011;8533;48.426;10.868;2022-12-07T08:30:18;20.33;;;8.90;;
16832;SDS011;8533;48.426;10.868;2022-12-07T08:32:46;18.33;;;9.03;;
16832;SDS011;8533;48.426;10.868;2022-12-07T08:35:14;18.23;;;9.43;;
16832;SDS011;8533;48.426;10.868;2022-12-07T08:37:42;18.73;;;8.70;;
16832;SDS011;8533;48.426;10.868;2022-12-07T08:40:10;17.73;;;8.93;;
16832;SDS011;8533;48.426;10.868;2022-12-07T08:42:41;18.17;;;9.00;;
16832;SDS011;8533;48.426;10.868;2022-12-07T08:45:11;16.43;;;9.03;;
16832;SDS011;8533;48.426;10.868;2022-12-07T08:47:48;17.53;;;8.63;;
16832;SDS011;8533;48.426;10.868;2022-12-07T08:50:13;21.73;;;9.70;;
16832;SDS011;8533;48.426;10.868;2022-12-07T08:52:41;18.37;;;8.87;;
16832;SDS011;8533;48.426;10.868;2022-12-07T08:55:10;16.70;;;8.60;;
16832;SDS011;8533;48.426;10.868;2022-12-07T08:57:38;17.33;;;9.47;;
16832;SDS011;8533;48.426;10.868;2022-12-07T09:00:06;15.33;;;8.10;;
16832;SDS011;8533;48.426;10.868;2022-12-07T09:02:34;18.03;;;9.30;;
16832;SDS011;8533;48.426;10.868;2022-12-07T09:05:02;16.00;;;9.27;;
16832;SDS011;8533;48.426;10.868;2022-12-07T09:07:30;18.23;;;9.17;;
16832;SDS011;8533;48.426;10.868;2022-12-07T09:10:00;16.63;;;8.67;;
16832;SDS011;8533;48.426;10.868;2022-12-07T09:12:28;16.83;;;8.73;;
16832;SDS011;8533;48.426;10.868;2022-12-07T09:14:55;18.53;;;8.53;;
16832;SDS011;8533;48.426;10.868;2022-12-07T09:17:23;18.87;;;8.23;;
16832;SDS011;8533;48.426;10.868;2022-12-07T09:19:50;15.73;;;7.43;;
16832;SDS011;8533;48.426;10.868;2022-12-07T09:22:18;15.47;;;8.03;;
16832;SDS011;8533;48.426;10.868;2022-12-07T09:24:45;15.00;;;7.63;;
16832;SDS011;8533;48.426;10.868;2022-12-07T09:27:12;12.70;;;7.07;;
16832;SDS011;8533;48.426;10.868;2022-12-07T09:29:41;13.70;;;7.07;;
16832;SDS011;8533;48.426;10.868;2022-12-07T09:32:08;11.30;;;6.70;;
16832;SDS011;8533;48.426;10.868;2022-12-07T09:34:35;12.93;;;6.77;;
16832;SDS011;8533;48.426;10.868;2022-12-07T09:37:03;10.97;;;5.77;;
16832;SDS011;8533;48.426;10.868;2022-12-07T09:39:31;9.77;;;5.10;;
16832;SDS011;8533;48.426;10.868;2022-12-07T09:41:59;11.63;;;5.13;;
16832;SDS011;8533;48.426;10.868;2022-12-07T09:44:29;9.00;;;5.10;;
16832;SDS011;8533;48.426;10.868;2022-12-07T09:46:57;9.90;;;4.67;;
16832;SDS011;8533;48.426;10.868;2022-12-07T09:49:25;8.30;;;4.90;;
16832;SDS011;8533;48.426;10.868;2022-12-07T09:52:02;11.17;;;5.43;;
16832;SDS011;8533;48.426;10.868;2022-12-07T09:54:31;11.37;;;4.27;;
16832;SDS011;8533;48.426;10.868;2022-12-07T09:57:02;7.50;;;4.37;;
16832;SDS011;8533;48.426;10.868;2022-12-07T09:59:29;9.60;;;4.70;;
16832;SDS011;8533;48.426;10.868;2022-12-07T10:01:57;8.87;;;4.80;;
16832;SDS011;8533;48.426;10.868;2022-12-07T10:04:27;8.00;;;3.97;;
16832;SDS011;8533;48.426;10.868;2022-12-07T10:06:55;8.90;;;4.93;;
16832;SDS011;8533;48.426;10.868;2022-12-07T10:09:22;8.20;;;5.13;;
16832;SDS011;8533;48.426;10.868;2022-12-07T10:14:35;9.00;;;5.30;;
16832;SDS011;8533;48.426;10.868;2022-12-07T10:17:26;7.80;;;4.50;;
16832;SDS011;8533;48.426;10.868;2022-12-07T10:22:11;7.57;;;4.40;;
16832;SDS011;8533;48.426;10.868;2022-12-07T10:24:40;9.03;;;4.40;;
16832;SDS011;8533;48.426;10.868;2022-12-07T10:27:22;7.40;;;4.23;;
16832;SDS011;8533;48.426;10.868;2022-12-07T10:29:54;7.70;;;4.40;;
16832;SDS011;8533;48.426;10.868;2022-12-07T10:32:32;8.07;;;4.43;;
16832;SDS011;8533;48.426;10.868;2022-12-07T10:37:32;7.43;;;5.10;;
16832;SDS011;8533;48.426;10.868;2022-12-07T10:40:10;7.67;;;4.57;;
16832;SDS011;8533;48.426;10.868;2022-12-07T10:42:33;8.90;;;5.13;;
16832;SDS011;8533;48.426;10.868;2022-12-07T11:03:29;8.80;;;4.83;;
16832;SDS011;8533;48.426;10.868;2022-12-07T11:08:38;10.13;;;5.13;;
16832;SDS011;8533;48.426;10.868;2022-12-07T11:21:54;9.77;;;5.07;;
16832;SDS011;8533;48.426;10.868;2022-12-07T11:24:20;8.75;;;4.10;;
16832;SDS011;8533;48.426;10.868;2022-12-07T11:40:24;8.57;;;4.90;;
16832;SDS011;8533;48.426;10.868;2022-12-07T11:45:27;6.13;;;3.83;;
16832;SDS011;8533;48.426;10.868;2022-12-07T11:48:02;6.70;;;3.83;;
16832;SDS011;8533;48.426;10.868;2022-12-07T11:50:50;6.53;;;3.93;;
16832;SDS011;8533;48.426;10.868;2022-12-07T11:53:20;7.90;;;4.60;;
16832;SDS011;8533;48.426;10.868;2022-12-07T11:56:03;7.40;;;3.80;;
16832;SDS011;8533;48.426;10.868;2022-12-07T11:58:46;7.60;;;4.00;;
16832;SDS011;8533;48.426;10.868;2022-12-07T12:06:59;10.93;;;4.37;;
16832;SDS011;8533;48.426;10.868;2022-12-07T12:09:30;6.53;;;3.90;;
16832;SDS011;8533;48.426;10.868;2022-12-07T12:12:16;10.33;;;5.40;;
16832;SDS011;8533;48.426;10.868;2022-12-07T12:15:01;6.50;;;3.80;;
16832;SDS011;8533;48.426;10.868;2022-12-07T12:17:35;5.20;;;3.30;;
16832;SDS011;8533;48.426;10.868;2022-12-07T12:33:44;6.23;;;3.60;;
16832;SDS011;8533;48.426;10.868;2022-12-07T12:36:24;10.60;;;3.57;;
16832;SDS011;8533;48.426;10.868;2022-12-07T12:51:54;6.37;;;3.93;;
16832;SDS011;8533;48.426;10.868;2022-12-07T12:55:01;6.57;;;3.90;;
16832;SDS011;8533;48.426;10.868;2022-12-07T12:57:31;7.73;;;3.87;;
16832;SDS011;8533;48.426;10.868;2022-12-07T12:59:59;6.83;;;3.50;;
16832;SDS011;8533;48.426;10.868;2022-12-07T13:02:32;8.00;;;4.47;;
16832;SDS011;8533;48.426;10.868;2022-12-07T13:05:03;8.87;;;4.40;;
16832;SDS011;8533;48.426;10.868;2022-12-07T13:15:38;15.63;;;7.63;;
16832;SDS011;8533;48.426;10.868;2022-12-07T13:20:43;7.93;;;3.93;;
16832;SDS011;8533;48.426;10.868;2022-12-07T13:23:14;8.20;;;3.60;;
16832;SDS011;8533;48.426;10.868;2022-12-07T13:28:38;5.70;;;3.50;;
16832;SDS011;8533;48.426;10.868;2022-12-07T13:34:00;7.83;;;4.10;;
16832;SDS011;8533;48.426;10.868;2022-12-07T13:36:33;9.40;;;4.47;;
16832;SDS011;8533;48.426;10.868;2022-12-07T13:41:55;6.20;;;4.00;;
16832;SDS011;8533;48.426;10.868;2022-12-07T13:44:20;9.60;;;6.47;;
16832;SDS011;8533;48.426;10.868;2022-12-07T13:47:02;11.10;;;5.17;;
16832;SDS011;8533;48.426;10.868;2022-12-07T13:49:47;8.73;;;5.20;;
16832;SDS011;8533;48.426;10.868;2022-12-07T13:52:19;11.27;;;4.10;;
16832;SDS011;8533;48.426;10.868;2022-12-07T13:57:18;11.10;;;4.03;;
16832;SDS011;8533;48.426;10.868;2022-12-07T13:59:46;8.97;;;4.70;;
16832;SDS011;8533;48.426;10.868;2022-12-07T14:02:21;11.67;;;5.17;;
16832;SDS011;8533;48.426;10.868;2022-12-07T14:05:08;9.80;;;5.00;;
16832;SDS011;8533;48.426;10.868;2022-12-07T14:07:54;9.30;;;4.30;;
16832;SDS011;8533;48.426;10.868;2022-12-07T14:10:29;10.27;;;5.10;;
16832;SDS011;8533;48.426;10.868;2022-12-07T14:15:29;8.77;;;4.87;;
16832;SDS011;8533;48.426;10.868;2022-12-07T14:18:00;8.20;;;4.67;;
16832;SDS011;8533;48.426;10.868;2022-12-07T14:20:32;9.20;;;4.93;;
16832;SDS011;8533;48.426;10.868;2022-12-07T14:23:02;8.97;;;5.00;;
16832;SDS011;8533;48.426;10.868;2022-12-07T14:28:26;6.47;;;3.93;;
16832;SDS011;8533;48.426;10.868;2022-12-07T14:30:56;7.75;;;4.55;;
16832;SDS011;8533;48.426;10.868;2022-12-07T14:33:24;9.90;;;4.70;;
16832;SDS011;8533;48.426;10.868;2022-12-07T14:35:52;7.53;;;4.30;;
16832;SDS011;8533;48.426;10.868;2022-12-07T14:38:21;10.63;;;4.03;;
16832;SDS011;8533;48.426;10.868;2022-12-07T14:40:50;6.87;;;4.13;;
16832;SDS011;8533;48.426;10.868;2022-12-07T14:43:19;7.13;;;4.03;;
16832;SDS011;8533;48.426;10.868;2022-12-07T14:45:47;6.63;;;3.67;;
16832;SDS011;8533;48.426;10.868;2022-12-07T14:48:15;7.00;;;4.17;;
16832;SDS011;8533;48.426;10.868;2022-12-07T14:50:46;7.07;;;3.83;;
16832;SDS011;8533;48.426;10.868;2022-12-07T14:55:46;9.73;;;4.13;;
16832;SDS011;8533;48.426;10.868;2022-12-07T14:58:14;7.63;;;4.33;;
16832;SDS011;8533;48.426;10.868;2022-12-07T15:00:43;8.30;;;4.17;;
16832;SDS011;8533;48.426;10.868;2022-12-07T15:03:13;7.23;;;3.77;;
16832;SDS011;8533;48.426;10.868;2022-12-07T15:05:40;8.60;;;4.13;;
16832;SDS011;8533;48.426;10.868;2022-12-07T15:08:08;5.73;;;3.60;;
16832;SDS011;8533;48.426;10.868;2022-12-07T15:10:38;6.43;;;3.60;;
16832;SDS011;8533;48.426;10.868;2022-12-07T15:13:05;7.43;;;4.23;;
16832;SDS011;8533;48.426;10.868;2022-12-07T15:15:52;8.50;;;4.30;;
16832;SDS011;8533;48.426;10.868;2022-12-07T15:18:20;10.17;;;4.03;;
16832;SDS011;8533;48.426;10.868;2022-12-07T15:20:49;5.93;;;3.53;;
16832;SDS011;8533;48.426;10.868;2022-12-07T15:23:17;5.97;;;4.13;;
16832;SDS011;8533;48.426;10.868;2022-12-07T15:25:45;6.97;;;4.20;;
16832;SDS011;8533;48.426;10.868;2022-12-07T15:28:14;5.60;;;3.67;;
16832;SDS011;8533;48.426;10.868;2022-12-07T15:30:42;7.63;;;4.37;;
16832;SDS011;8533;48.426;10.868;2022-12-07T15:33:11;6.30;;;4.00;;
16832;SDS011;8533;48.426;10.868;2022-12-07T15:35:42;9.10;;;4.70;;
16832;SDS011;8533;48.426;10.868;2022-12-07T15:38:11;9.67;;;4.30;;
16832;SDS011;8533;48.426;10.868;2022-12-07T15:40:39;19.23;;;4.13;;
16832;SDS011;8533;48.426;10.868;2022-12-07T15:43:08;6.17;;;3.40;;
16832;SDS011;8533;48.426;10.868;2022-12-07T15:45:37;7.90;;;3.83;;
16832;SDS011;8533;48.426;10.868;2022-12-07T15:48:05;7.97;;;4.80;;
16832;SDS011;8533;48.426;10.868;2022-12-07T15:50:32;7.30;;;4.33;;
16832;SDS011;8533;48.426;10.868;2022-12-07T15:53:00;6.77;;;4.53;;
16832;SDS011;8533;48.426;10.868;2022-12-07T15:55:27;6.43;;;4.00;;
16832;SDS011;8533;48.426;10.868;2022-12-07T15:57:54;8.20;;;4.00;;
16832;SDS011;8533;48.426;10.868;2022-12-07T16:00:22;8.83;;;4.20;;
16832;SDS011;8533;48.426;10.868;2022-12-07T16:02:49;6.67;;;4.67;;
16832;SDS011;8533;48.426;10.868;2022-12-07T16:05:17;8.00;;;4.20;;
16832;SDS011;8533;48.426;10.868;2022-12-07T16:07:45;6.00;;;3.80;;
16832;SDS011;8533;48.426;10.868;2022-12-07T16:10:12;6.83;;;4.60;;
16832;SDS011;8533;48.426;10.868;2022-12-07T16:12:40;5.47;;;3.30;;
16832;SDS011;8533;48.426;10.868;2022-12-07T16:15:07;6.47;;;3.70;;
16832;SDS011;8533;48.426;10.868;2022-12-07T16:17:35;6.67;;;3.77;;
16832;SDS011;8533;48.426;10.868;2022-12-07T16:20:03;7.97;;;4.40;;
16832;SDS011;8533;48.426;10.868;2022-12-07T16:22:31;8.17;;;3.43;;
16832;SDS011;8533;48.426;10.868;2022-12-07T16:24:58;8.10;;;4.53;;
16832;SDS011;8533;48.426;10.868;2022-12-07T16:27:26;8.73;;;4.27;;
16832;SDS011;8533;48.426;10.868;2022-12-07T16:29:53;8.17;;;3.93;;
16832;SDS011;8533;48.426;10.868;2022-12-07T16:32:21;5.53;;;3.70;;
16832;SDS011;8533;48.426;10.868;2022-12-07T16:34:48;6.57;;;4.10;;
16832;SDS011;8533;48.426;10.868;2022-12-07T16:37:16;10.97;;;4.10;;
16832;SDS011;8533;48.426;10.868;2022-12-07T16:39:43;8.17;;;4.40;;
16832;SDS011;8533;48.426;10.868;2022-12-07T16:42:12;8.13;;;3.93;;
16832;SDS011;8533;48.426;10.868;2022-12-07T16:44:40;8.73;;;4.57;;
16832;SDS011;8533;48.426;10.868;2022-12-07T16:47:07;19.03;;;4.60;;
16832;SDS011;8533;48.426;10.868;2022-12-07T16:49:35;9.40;;;4.23;;
16832;SDS011;8533;48.426;10.868;2022-12-07T16:52:02;6.53;;;4.03;;
16832;SDS011;8533;48.426;10.868;2022-12-07T16:54:30;8.43;;;4.73;;
16832;SDS011;8533;48.426;10.868;2022-12-07T16:56:58;8.33;;;3.80;;
16832;SDS011;8533;48.426;10.868;2022-12-07T16:59:26;7.50;;;4.57;;
16832;SDS011;8533;48.426;10.868;2022-12-07T17:01:53;10.03;;;4.13;;
16832;SDS011;8533;48.426;10.868;2022-12-07T17:04:21;6.43;;;3.90;;
16832;SDS011;8533;48.426;10.868;2022-12-07T17:06:48;7.37;;;4.20;;
16832;SDS011;8533;48.426;10.868;2022-12-07T17:09:15;8.80;;;4.57;;
16832;SDS011;8533;48.426;10.868;2022-12-07T17:11:43;8.93;;;4.43;;
16832;SDS011;8533;48.426;10.868;2022-12-07T17:14:11;10.70;;;4.47;;
16832;SDS011;8533;48.426;10.868;2022-12-07T17:16:56;10.75;;;4.90;;
16832;SDS011;8533;48.426;10.868;2022-12-07T17:19:23;9.00;;;4.10;;
16832;SDS011;8533;48.426;10.868;2022-12-07T17:21:55;7.93;;;4.00;;
16832;SDS011;8533;48.426;10.868;2022-12-07T17:24:23;6.90;;;4.20;;
16832;SDS011;8533;48.426;10.868;2022-12-07T17:26:53;6.63;;;4.13;;
16832;SDS011;8533;48.426;10.868;2022-12-07T17:29:21;8.30;;;4.03;;
16832;SDS011;8533;48.426;10.868;2022-12-07T17:31:48;8.43;;;4.10;;
16832;SDS011;8533;48.426;10.868;2022-12-07T17:34:16;9.20;;;4.57;;
16832;SDS011;8533;48.426;10.868;2022-12-07T17:36:49;11.67;;;5.30;;
16832;SDS011;8533;48.426;10.868;2022-12-07T17:39:14;9.80;;;4.93;;